Etusivu
METAR-TAF:

METAR-TAF

Lentoasemat :

Harbin, Kiina

Leveyspiiri: 45-45N, Pituuspiiri: 126-46E, korkeus merenpinnasta: 143 m

Tämänhetkinen sää

Tämä raportti tehtiin 1 tunti ja 6 minuuttia sitten, kello 09.00 UTC
Tuuli 6 kn etelästä/lounaasta
Lämpötila -11°C
Kosteus 61%
Ilmanpaine 1022 hPa
Näkyvyys 10 km tai enemmän
ei pilviä alle 1500 m:ssä eikä cumulonimbus-pilviä

METAR: ZYHB 060900Z 20003MPS CAVOK M11/M17 Q1022 NOSIG

Aika: 18:06 (10:06 UTC)

Sääennuste

Tämä raportti tehtiin 7 tuntia ja 3 minuuttia sitten, kello 03.03 UTC
Ennuste voimassa 06. päivästä klo 06 UTC - 07. päivään klo 06 UTC
Tuuli 16 kn etelästä/lounaasta puuskistuen 27 kn:hen
Näkyvyys: 6000 m
Muutamia pilviä 3300 ft:n korkeudessa
Tulossa
06. päivästä klo 14 UTC - 06. päivään klo 15 UTC
Tuuli 6 kn luoteesta

TAF: ZYHB 060303Z 0606/0706 21008G14MPS 6000 FEW033 TXM11/06Z TNM23/21Z BECMG 0614/0615 31003MPS

Säähavainnot ja -ennusteet yli 4000 lentoasemalta (METAR- ja TAF-raportit).

Käytössä olevat sääasemat on merkitty karttaan keltaisilla ja punaisilla pisteillä.

Aseta hiiri pisteen päälle nähdäksesi sääaseman nimen.

Klikkaa sitten nähdäksesi säähavainnot ja -ennusteet.

Kartan vaihtaminen: klikkaa mustalla rastilla varustettuja vihreitä pisteitä, niin voit zoomata sisään; viivalla varustettua vihreää pistettä, niin voit zoomata ulos tai vihreitä nuolia, niin pääset viereisille kartoille.


METAR-TAF: